Time;durP1;ratioP1;P1;durP2;ratioP2;P2;SDS_P1;SDS_P2;PMS_P1;PMS_P2;Temp;Humidity;BMP_temperature;BMP_pressure;BME280_temperature;BME280_humidity;BME280_pressure;Samples;Min_cycle;Max_cycle;Signal;HPM_P1;HPM_P2
2022/12/23 00:02:06;;;;;;;3.30;0.90;;;;;;;10.03;100.00;99212.41;5020504;28;21748;-73
2022/12/23 00:04:32;;;;;;;1.67;0.90;;;;;;;10.04;100.00;99211.53;5018046;28;20195;-72
2022/12/23 00:06:57;;;;;;;2.43;0.90;;;;;;;10.06;100.00;99213.19;5019994;28;20866;-73
2022/12/23 00:09:22;;;;;;;1.93;0.70;;;;;;;10.07;100.00;99206.28;5021020;28;20206;-72
2022/12/23 00:17:16;;;;;;;1.50;0.70;;;;;;;10.15;100.00;99195.75;5018355;28;20757;-73
2022/12/23 00:19:41;;;;;;;0.70;0.50;;;;;;;10.19;100.00;99198.22;5020349;28;20284;-73
2022/12/23 00:22:06;;;;;;;1.23;0.60;;;;;;;10.25;100.00;99194.63;5019068;28;20203;-73
2022/12/23 00:24:31;;;;;;;1.30;0.50;;;;;;;10.30;100.00;99190.19;5018130;28;20196;-73
2022/12/23 00:26:57;;;;;;;2.20;0.73;;;;;;;10.35;100.00;99198.72;5024218;28;20601;-73
2022/12/23 00:29:22;;;;;;;1.63;0.60;;;;;;;10.37;100.00;99207.25;5020206;28;20190;-72
2022/12/23 00:31:47;;;;;;;1.33;0.77;;;;;;;10.44;100.00;99205.38;5019562;28;21178;-73
2022/12/23 00:34:13;;;;;;;0.90;0.50;;;;;;;10.46;100.00;99208.78;5018709;28;20198;-72
2022/12/23 00:36:39;;;;;;;1.53;0.50;;;;;;;10.46;100.00;99198.44;5016614;28;20207;-73
2022/12/23 00:44:33;;;;;;;1.63;0.53;;;;;;;10.59;100.00;99208.50;5018297;28;20271;-73
2022/12/23 00:46:58;;;;;;;0.73;0.43;;;;;;;10.59;100.00;99227.44;5019425;28;20191;-73
2022/12/23 00:49:41;;;;;;;1.40;0.60;;;;;;;10.60;100.00;99238.63;5020900;28;20267;-73
2022/12/23 00:52:10;;;;;;;1.43;0.60;;;;;;;10.64;100.00;99235.94;5017542;28;20302;-73
2022/12/23 00:54:36;;;;;;;1.50;0.43;;;;;;;10.66;100.00;99251.41;5013098;28;20206;-73
2022/12/23 00:57:01;;;;;;;1.23;0.50;;;;;;;10.68;100.00;99247.88;5015788;28;20200;-72
2022/12/23 00:59:27;;;;;;;1.13;0.40;;;;;;;10.70;100.00;99249.59;5019470;28;20556;-73
2022/12/23 01:07:20;;;;;;;1.13;0.70;;;;;;;10.73;100.00;99250.38;5010145;28;20229;-72
2022/12/23 01:09:46;;;;;;;1.10;0.47;;;;;;;10.77;100.00;99254.56;5016716;28;20704;-73
2022/12/23 01:12:11;;;;;;;1.40;0.50;;;;;;;10.80;100.00;99264.00;5013104;28;20191;-73
2022/12/23 01:14:37;;;;;;;1.30;0.53;;;;;;;10.81;100.00;99261.34;5018782;28;20272;-73
2022/12/23 01:17:02;;;;;;;1.87;0.63;;;;;;;10.79;100.00;99267.47;5020718;28;20244;-72
2022/12/23 01:19:27;;;;;;;1.37;0.50;;;;;;;10.79;100.00;99272.66;5019171;28;20187;-73
2022/12/23 01:21:53;;;;;;;2.13;0.70;;;;;;;10.82;100.00;99277.72;5020272;28;20238;-72
2022/12/23 01:24:18;;;;;;;0.93;0.50;;;;;;;10.82;100.00;99277.72;5021366;28;20609;-73
2022/12/23 01:26:44;;;;;;;0.70;0.50;;;;;;;10.82;100.00;99288.06;5018422;28;20225;-72
2022/12/23 01:29:09;;;;;;;1.27;0.37;;;;;;;10.83;100.00;99290.63;5019636;28;20249;-73
2022/12/23 01:31:34;;;;;;;0.83;0.40;;;;;;;10.90;100.00;99282.69;5019572;28;20241;-73
2022/12/23 01:34:00;;;;;;;1.37;0.57;;;;;;;10.89;100.00;99292.22;5017283;28;20223;-73
2022/12/23 01:36:25;;;;;;;0.77;0.43;;;;;;;10.91;100.00;99293.03;5020863;28;20261;-72
2022/12/23 01:38:51;;;;;;;0.50;0.37;;;;;;;10.93;100.00;99295.56;5021934;28;20201;-73
2022/12/23 01:44:47;;;;;;;0.57;0.50;;;;;;;10.96;100.00;99311.88;5020898;28;20257;-73
2022/12/23 01:47:18;;;;;;;0.93;0.53;;;;;;;11.00;100.00;99316.97;5016834;28;20198;-73
2022/12/23 01:49:45;;;;;;;2.47;0.70;;;;;;;11.01;100.00;99326.44;5018064;28;20205;-73
2022/12/23 01:52:11;;;;;;;1.07;0.50;;;;;;;11.06;100.00;99330.59;5021307;28;20200;-73
2022/12/23 01:54:38;;;;;;;2.17;0.50;;;;;;;11.07;100.00;99344.41;5019025;28;20246;-73
2022/12/23 01:57:04;;;;;;;0.30;0.20;;;;;;;11.06;100.00;99351.31;5015213;28;20214;-73
2022/12/23 02:04:58;;;;;;;0.50;0.40;;;;;;;11.11;100.00;99357.22;5024499;28;21563;-73
2022/12/23 02:10:08;;;;;;;0.80;0.43;;;;;;;11.08;100.00;99364.22;5020597;28;20389;-73
2022/12/23 02:13:12;;;;;;;0.67;0.40;;;;;;;11.06;100.00;99371.19;5001578;28;20842;-72
2022/12/23 02:18:37;;;;;;;1.13;0.40;;;;;;;11.05;100.00;99385.00;5015048;28;20675;-73
2022/12/23 02:21:09;;;;;;;0.70;0.57;;;;;;;11.04;100.00;99383.31;5020110;28;20195;-73
2022/12/23 02:24:16;;;;;;;0.83;0.47;;;;;;;11.05;100.00;99382.44;5022974;28;20282;-73
2022/12/23 02:26:56;;;;;;;0.90;0.40;;;;;;;11.04;100.00;99391.91;4994429;28;20266;-73
2022/12/23 02:29:58;;;;;;;0.50;0.40;;;;;;;11.02;100.00;99396.31;5021294;28;20738;-73
2022/12/23 02:32:48;;;;;;;1.13;0.40;;;;;;;11.01;100.00;99402.38;5023826;28;20207;-72
2022/12/23 02:35:26;;;;;;;0.50;0.40;;;;;;;11.02;100.00;99398.91;5018959;28;20581;-73
2022/12/23 02:38:08;;;;;;;1.00;0.30;;;;;;;11.01;100.00;99412.72;5024424;28;20195;-73
2022/12/23 02:40:52;;;;;;;1.33;0.50;;;;;;;11.01;100.00;99422.22;5022401;28;20184;-73
2022/12/23 02:43:21;;;;;;;0.40;0.40;;;;;;;11.03;100.00;99428.22;5020953;28;20211;-73
2022/12/23 02:45:57;;;;;;;0.87;0.40;;;;;;;11.01;100.00;99427.41;5023637;28;20208;-73
2022/12/23 02:48:53;;;;;;;0.77;0.40;;;;;;;11.03;100.00;99439.44;5016111;28;20221;-71
2022/12/23 02:51:23;;;;;;;0.40;0.30;;;;;;;11.03;100.00;99438.56;5024767;28;20660;-72
2022/12/23 02:53:53;;;;;;;1.37;0.40;;;;;;;11.03;100.00;99449.78;5021900;28;20190;-72
2022/12/23 02:56:22;;;;;;;1.23;0.40;;;;;;;11.04;100.00;99448.88;5025369;28;20251;-73
2022/12/23 02:58:57;;;;;;;0.83;0.50;;;;;;;11.04;100.00;99448.88;5021191;28;20199;-73
2022/12/23 03:01:26;;;;;;;1.23;0.50;;;;;;;11.06;100.00;99441.09;5020608;28;20183;-72
2022/12/23 03:03:51;;;;;;;0.40;0.30;;;;;;;11.03;100.00;99444.63;5012682;28;20244;-73
2022/12/23 03:06:25;;;;;;;0.50;0.37;;;;;;;11.02;100.00;99455.84;5021509;28;20399;-73
2022/12/23 03:08:55;;;;;;;1.07;0.47;;;;;;;11.01;100.00;99453.28;5019076;28;20296;-73
2022/12/23 03:11:20;;;;;;;0.50;0.40;;;;;;;11.01;100.00;99453.28;5020569;28;20199;-73
2022/12/23 03:14:12;;;;;;;1.00;0.60;;;;;;;10.99;100.00;99461.09;5017872;28;20652;-73
2022/12/23 03:17:16;;;;;;;1.03;0.60;;;;;;;10.99;100.00;99461.09;5017950;28;20225;-73
2022/12/23 03:19:47;;;;;;;0.73;0.43;;;;;;;10.98;100.00;99465.41;4965373;28;20209;-74
2022/12/23 03:22:34;;;;;;;0.97;0.50;;;;;;;10.97;100.00;99461.13;4978004;28;20308;-72
2022/12/23 03:25:07;;;;;;;1.90;0.60;;;;;;;11.00;100.00;99468.00;5000847;28;20219;-73
2022/12/23 03:27:40;;;;;;;0.80;0.53;;;;;;;11.00;100.00;99467.13;5022401;28;20241;-73
2022/12/23 03:30:12;;;;;;;1.07;0.50;;;;;;;11.00;100.00;99472.28;5020836;28;20192;-73
2022/12/23 03:32:52;;;;;;;1.03;0.53;;;;;;;11.00;100.00;99472.28;5026043;28;20206;-73
2022/12/23 03:35:24;;;;;;;0.73;0.50;;;;;;;11.03;100.00;99477.41;5021542;28;20235;-73
2022/12/23 03:37:53;;;;;;;1.23;0.40;;;;;;;11.01;100.00;99474.00;5023717;28;20197;-73
2022/12/23 03:40:23;;;;;;;1.37;0.47;;;;;;;11.02;100.00;99480.88;5017817;28;20206;-73
2022/12/23 03:42:56;;;;;;;0.67;0.50;;;;;;;11.01;100.00;99476.59;5021963;28;20259;-73
2022/12/23 03:45:27;;;;;;;2.20;0.70;;;;;;;11.03;100.00;99483.44;5019695;28;20212;-73
2022/12/23 03:48:00;;;;;;;0.60;0.60;;;;;;;11.00;100.00;99483.53;5019720;28;20845;-73
2022/12/23 03:50:27;;;;;;;0.70;0.50;;;;;;;11.00;100.00;99493.00;5037411;28;20211;-73
2022/12/23 03:53:15;;;;;;;1.23;0.43;;;;;;;10.99;100.00;99497.34;5022669;28;20199;-73
2022/12/23 03:55:46;;;;;;;1.40;0.50;;;;;;;10.97;100.00;99497.38;5012271;28;20311;-73
2022/12/23 03:58:15;;;;;;;2.77;0.73;;;;;;;10.96;100.00;99503.47;5020846;28;20200;-74
2022/12/23 04:00:53;;;;;;;1.63;0.57;;;;;;;10.96;100.00;99506.03;5006019;28;20210;-73
2022/12/23 04:03:35;;;;;;;0.60;0.40;;;;;;;10.93;100.00;99506.13;5031223;28;20284;-73
2022/12/23 04:06:03;;;;;;;0.50;0.50;;;;;;;10.93;100.00;99508.69;5018310;28;20246;-73
2022/12/23 04:08:33;;;;;;;1.20;0.57;;;;;;;10.92;100.00;99496.66;5018547;28;20192;-73
2022/12/23 04:11:00;;;;;;;1.43;0.57;;;;;;;10.90;100.00;99500.13;5016948;28;20211;-73
2022/12/23 04:13:29;;;;;;;0.70;0.53;;;;;;;10.89;100.00;99491.53;5015465;28;20273;-73
2022/12/23 04:15:57;;;;;;;0.70;0.60;;;;;;;10.88;100.00;99497.59;5017214;28;20239;-73
2022/12/23 04:18:23;;;;;;;1.27;0.50;;;;;;;10.88;100.00;99501.94;5019014;28;20195;-73
2022/12/23 04:20:49;;;;;;;1.40;0.60;;;;;;;10.87;100.00;99508.00;5019401;28;20262;-72
2022/12/23 04:23:14;;;;;;;0.63;0.47;;;;;;;10.86;100.00;99507.13;5022307;28;20219;-73
2022/12/23 04:25:39;;;;;;;0.93;0.50;;;;;;;10.86;100.00;99514.88;5019621;28;20207;-73
2022/12/23 04:28:05;;;;;;;0.97;0.60;;;;;;;10.87;100.00;99519.19;5019305;28;20189;-72
2022/12/23 04:30:30;;;;;;;1.43;0.70;;;;;;;10.88;100.00;99527.81;5019829;28;20199;-74
2022/12/23 04:32:55;;;;;;;2.37;0.70;;;;;;;10.88;100.00;99520.88;5020650;28;20546;-72
2022/12/23 04:35:21;;;;;;;1.90;0.57;;;;;;;10.87;100.00;99526.94;5019535;28;20215;-73
2022/12/23 04:37:47;;;;;;;2.60;0.70;;;;;;;10.88;100.00;99528.66;5025244;28;20712;-73
2022/12/23 04:40:12;;;;;;;1.40;0.60;;;;;;;10.90;100.00;99531.19;5019914;28;20188;-73
2022/12/23 04:42:38;;;;;;;1.70;0.63;;;;;;;10.89;100.00;99530.34;5015049;28;20295;-73
2022/12/23 04:45:03;;;;;;;1.43;0.73;;;;;;;10.90;100.00;99529.47;5016991;28;20216;-73
2022/12/23 04:47:29;;;;;;;0.90;0.50;;;;;;;10.89;100.00;99522.59;5017058;28;20194;-73
2022/12/23 04:49:54;;;;;;;1.00;0.63;;;;;;;10.89;100.00;99530.34;5020138;28;20251;-73
2022/12/23 04:52:19;;;;;;;1.33;0.57;;;;;;;10.89;100.00;99526.94;5018253;28;20202;-73
2022/12/23 04:54:45;;;;;;;1.00;0.70;;;;;;;10.88;100.00;99531.25;5015508;28;20189;-73
2022/12/23 04:57:10;;;;;;;0.90;0.53;;;;;;;10.87;100.00;99545.06;5016627;28;20215;-73
2022/12/23 04:59:35;;;;;;;1.23;0.50;;;;;;;10.89;100.00;99539.88;5019796;28;20273;-73
2022/12/23 05:02:01;;;;;;;0.80;0.50;;;;;;;10.88;100.00;99535.59;5020197;28;20191;-74
2022/12/23 05:04:26;;;;;;;0.50;0.30;;;;;;;10.87;100.00;99532.13;5017972;28;20195;-73
2022/12/23 05:06:52;;;;;;;0.73;0.60;;;;;;;10.91;100.00;99535.50;5019300;28;20207;-73
2022/12/23 05:09:17;;;;;;;0.93;0.73;;;;;;;10.92;100.00;99519.06;5017543;28;20187;-73
2022/12/23 05:11:42;;;;;;;1.20;0.53;;;;;;;10.91;100.00;99518.22;5017045;28;20215;-72
2022/12/23 05:14:11;;;;;;;1.13;0.63;;;;;;;10.91;100.00;99515.66;5017509;28;20193;-72
2022/12/23 05:16:37;;;;;;;1.67;0.60;;;;;;;10.90;100.00;99515.66;5023343;28;20238;-73
2022/12/23 05:19:03;;;;;;;0.63;0.50;;;;;;;10.90;100.00;99516.53;5024366;28;20283;-73
2022/12/23 05:21:28;;;;;;;0.83;0.60;;;;;;;10.92;100.00;99516.47;5021374;28;20307;-73
2022/12/23 05:23:54;;;;;;;1.13;0.50;;;;;;;10.94;100.00;99527.66;5002974;28;20219;-73
2022/12/23 05:26:19;;;;;;;0.80;0.50;;;;;;;10.95;100.00;99543.19;5018494;28;20215;-73
2022/12/23 05:28:44;;;;;;;0.47;0.40;;;;;;;10.97;100.00;99543.97;5018497;28;20211;-73
2022/12/23 05:31:11;;;;;;;0.63;0.50;;;;;;;10.99;100.00;99531.00;5016024;28;20194;-73
2022/12/23 05:33:36;;;;;;;0.83;0.30;;;;;;;11.02;100.00;99519.72;5013380;28;20191;-73
2022/12/23 05:36:02;;;;;;;0.97;0.53;;;;;;;11.03;100.00;99524.88;5023170;28;20219;-73
2022/12/23 05:38:27;;;;;;;0.47;0.47;;;;;;;11.05;100.00;99519.66;5020560;28;20191;-73
2022/12/23 05:40:53;;;;;;;0.50;0.50;;;;;;;11.05;100.00;99520.50;5022343;28;20215;-73
2022/12/23 05:43:19;;;;;;;1.70;0.50;;;;;;;11.05;100.00;99523.06;5018011;28;20787;-73
2022/12/23 05:45:45;;;;;;;0.83;0.40;;;;;;;11.05;100.00;99525.66;5020382;28;20710;-73
2022/12/23 05:48:10;;;;;;;0.77;0.53;;;;;;;11.07;100.00;99523.06;5015066;28;20206;-73
2022/12/23 05:50:37;;;;;;;1.07;0.53;;;;;;;11.08;100.00;99524.75;5022218;28;20201;-73
2022/12/23 05:53:02;;;;;;;0.43;0.43;;;;;;;11.08;100.00;99517.00;5022363;28;20193;-72
2022/12/23 05:55:28;;;;;;;1.17;0.73;;;;;;;11.08;100.00;99514.41;5023889;28;20219;-73
2022/12/23 05:57:53;;;;;;;1.27;0.50;;;;;;;11.08;100.00;99520.44;5020660;28;20206;-73
2022/12/23 06:00:19;;;;;;;1.13;0.70;;;;;;;11.08;100.00;99519.59;5025728;28;20190;-72
2022/12/23 06:02:45;;;;;;;1.03;0.67;;;;;;;11.08;100.00;99522.19;5018611;28;20201;-74
2022/12/23 06:05:11;;;;;;;1.17;0.77;;;;;;;11.07;100.00;99528.25;5032293;28;20209;-74
2022/12/23 06:07:37;;;;;;;0.67;0.60;;;;;;;11.07;100.00;99525.66;5038526;28;20220;-73
2022/12/23 06:10:04;;;;;;;1.03;0.70;;;;;;;11.06;100.00;99514.44;5029313;28;20671;-73
2022/12/23 06:12:29;;;;;;;1.53;0.70;;;;;;;11.07;100.00;99520.47;5023993;28;20192;-72
2022/12/23 06:14:55;;;;;;;1.53;0.80;;;;;;;11.06;100.00;99511.00;5022579;28;20212;-73
2022/12/23 06:17:20;;;;;;;0.60;0.60;;;;;;;11.07;100.00;99512.69;5022179;28;20197;-73
2022/12/23 06:19:48;;;;;;;1.23;0.70;;;;;;;11.08;100.00;99506.63;5024510;28;20244;-73
2022/12/23 06:22:15;;;;;;;0.60;0.50;;;;;;;11.11;100.00;99509.16;5028130;28;20668;-72
2022/12/23 06:24:40;;;;;;;1.00;0.80;;;;;;;11.12;100.00;99513.44;5024816;28;20207;-73
2022/12/23 06:27:06;;;;;;;1.20;0.90;;;;;;;11.13;100.00;99512.53;5024559;28;20196;-72
2022/12/23 06:29:31;;;;;;;1.10;0.87;;;;;;;11.14;100.00;99522.00;5026897;28;20200;-73
2022/12/23 06:31:56;;;;;;;1.90;1.03;;;;;;;11.13;100.00;99521.19;5028015;28;20200;-73
2022/12/23 06:34:22;;;;;;;2.07;0.93;;;;;;;11.13;100.00;99525.50;5028272;28;20578;-73
2022/12/23 06:36:47;;;;;;;1.73;1.00;;;;;;;11.11;100.00;99529.88;5023727;28;20681;-73
2022/12/23 06:39:13;;;;;;;2.77;1.43;;;;;;;11.10;100.00;99523.84;5016175;28;20201;-73
2022/12/23 06:41:38;;;;;;;1.37;0.80;;;;;;;11.08;100.00;99530.78;5021431;28;20302;-73
2022/12/23 06:44:03;;;;;;;0.77;0.70;;;;;;;11.08;100.00;99532.53;5018746;28;20248;-73
2022/12/23 06:46:29;;;;;;;0.87;0.70;;;;;;;11.07;100.00;99539.44;5025574;28;20286;-73
2022/12/23 06:48:54;;;;;;;1.00;0.90;;;;;;;11.07;100.00;99541.19;5028861;28;20554;-73
2022/12/23 06:51:20;;;;;;;1.40;1.03;;;;;;;11.06;100.00;99539.47;5029790;28;20706;-73
2022/12/23 06:53:45;;;;;;;1.37;1.23;;;;;;;11.06;100.00;99542.91;5032763;28;20187;-73
2022/12/23 06:56:11;;;;;;;1.40;1.00;;;;;;;11.06;100.00;99547.25;5026237;28;20286;-73
2022/12/23 06:58:36;;;;;;;1.53;1.00;;;;;;;11.06;100.00;99547.25;5029827;28;20674;-72
2022/12/23 07:01:01;;;;;;;2.10;1.00;;;;;;;11.04;100.00;99555.03;5025070;28;20196;-74
2022/12/23 07:03:27;;;;;;;1.00;0.90;;;;;;;11.03;100.00;99558.53;5027695;28;20214;-72
2022/12/23 07:05:52;;;;;;;0.80;0.80;;;;;;;11.04;100.00;99549.84;5025625;28;20211;-74
2022/12/23 07:08:18;;;;;;;1.90;0.80;;;;;;;11.04;100.00;99551.59;5022462;28;20601;-73
2022/12/23 07:10:44;;;;;;;2.10;0.80;;;;;;;11.05;100.00;99556.75;5022187;28;20190;-73
2022/12/23 07:13:09;;;;;;;1.43;0.80;;;;;;;11.07;100.00;99562.75;5021065;28;20706;-72
2022/12/23 07:15:36;;;;;;;0.83;0.70;;;;;;;11.09;100.00;99571.31;5025838;28;20212;-73
2022/12/23 07:18:01;;;;;;;0.90;0.70;;;;;;;11.12;100.00;99571.25;5027248;28;20189;-74
2022/12/23 07:20:27;;;;;;;1.23;0.80;;;;;;;11.14;100.00;99571.22;5013919;28;20692;-73
2022/12/23 07:22:56;;;;;;;0.83;0.83;;;;;;;11.16;100.00;99569.44;5025342;28;20662;-74
2022/12/23 07:25:22;;;;;;;1.07;0.87;;;;;;;11.18;100.00;99577.19;5023020;28;20214;-73
2022/12/23 07:27:51;;;;;;;1.50;0.90;;;;;;;11.19;100.00;99584.09;5027499;28;20561;-74
2022/12/23 07:30:16;;;;;;;1.63;1.10;;;;;;;11.21;100.00;99580.56;5021802;28;20188;-74
2022/12/23 07:32:42;;;;;;;2.73;1.30;;;;;;;11.23;100.00;99586.56;5018883;28;20200;-74
2022/12/23 07:35:07;;;;;;;2.10;1.30;;;;;;;11.25;100.00;99583.94;5015005;28;20263;-73
2022/12/23 07:37:33;;;;;;;2.83;1.30;;;;;;;11.23;100.00;99576.22;5009413;28;20190;-74
2022/12/23 07:39:58;;;;;;;1.70;1.60;;;;;;;11.23;100.00;99583.97;5019873;28;20182;-73
2022/12/23 07:42:23;;;;;;;1.57;1.40;;;;;;;11.23;100.00;99583.09;5018931;28;20308;-72
2022/12/23 07:44:48;;;;;;;2.80;2.20;;;;;;;11.21;100.00;99588.34;5020913;28;20187;-73
2022/12/23 07:47:14;;;;;;;3.97;3.67;;;;;;;11.20;100.00;99601.31;5025732;28;20654;-73
2022/12/23 07:49:39;;;;;;;5.10;4.70;;;;;;;11.21;100.00;99595.22;5025575;28;20206;-74
2022/12/23 07:52:05;;;;;;;4.40;4.00;;;;;;;11.22;100.00;99603.00;5024976;28;20189;-73
2022/12/23 07:54:30;;;;;;;3.20;2.57;;;;;;;11.21;100.00;99606.47;5022384;28;20247;-75
2022/12/23 07:56:56;;;;;;;3.10;2.73;;;;;;;11.22;100.00;99600.41;5021040;28;20228;-73
2022/12/23 07:59:24;;;;;;;2.97;2.77;;;;;;;11.25;100.00;99608.09;5019896;28;20665;-73
2022/12/23 08:01:49;;;;;;;2.30;2.10;;;;;;;11.26;100.00;99611.53;5020281;28;20239;-73
2022/12/23 08:04:15;;;;;;;2.90;2.70;;;;;;;11.27;100.00;99605.47;5022824;28;22102;-74
2022/12/23 08:06:41;;;;;;;2.53;1.47;;;;;;;11.27;100.00;99606.31;5021495;28;20914;-73
2022/12/23 08:09:08;;;;;;;2.37;1.67;;;;;;;11.27;100.00;99603.72;5021719;28;20274;-72
2022/12/23 08:11:33;;;;;;;2.40;1.30;;;;;;;11.28;100.00;99602.00;5017245;28;20199;-73
2022/12/23 08:13:58;;;;;;;1.90;0.90;;;;;;;11.29;100.00;99607.13;5021429;28;20206;-74
2022/12/23 08:16:24;;;;;;;2.30;1.00;;;;;;;11.29;100.00;99595.94;5020243;28;20714;-72
2022/12/23 08:18:49;;;;;;;2.03;1.03;;;;;;;11.29;100.00;99596.75;5021676;28;20220;-72
2022/12/23 08:21:18;;;;;;;1.20;1.00;;;;;;;11.33;100.00;99586.34;5021149;28;20203;-73
2022/12/23 08:23:47;;;;;;;2.60;1.47;;;;;;;11.33;100.00;99583.75;5023840;28;20227;-73
2022/12/23 08:26:13;;;;;;;0.80;0.80;;;;;;;11.33;100.00;99584.63;5020582;28;20209;-73
2022/12/23 08:28:40;;;;;;;1.27;0.90;;;;;;;11.36;100.00;99570.72;5022724;28;20281;-73
2022/12/23 08:31:13;;;;;;;1.30;0.90;;;;;;;11.37;100.00;99583.63;5023144;28;20196;-73
2022/12/23 08:33:41;;;;;;;2.30;2.10;;;;;;;11.41;100.00;99579.25;5023526;28;20193;-72
2022/12/23 08:36:08;;;;;;;1.73;1.60;;;;;;;11.42;100.00;99565.38;5021787;28;20212;-74
2022/12/23 08:38:34;;;;;;;3.03;2.30;;;;;;;11.41;100.00;99568.91;5022184;28;20597;-74
2022/12/23 08:41:00;;;;;;;3.60;2.97;;;;;;;11.41;100.00;99572.31;5024608;28;20249;-73
2022/12/23 08:43:25;;;;;;;4.63;3.60;;;;;;;11.41;100.00;99577.50;5020574;28;20209;-73
2022/12/23 08:45:51;;;;;;;4.40;3.73;;;;;;;11.42;100.00;99586.97;5029138;28;20212;-73
2022/12/23 08:48:16;;;;;;;2.83;2.07;;;;;;;11.46;100.00;99576.56;5024180;28;20190;-74
2022/12/23 08:50:43;;;;;;;2.77;1.67;;;;;;;11.49;100.00;99579.06;5029933;28;20914;-73
2022/12/23 08:53:10;;;;;;;2.07;1.70;;;;;;;11.50;100.00;99575.56;5024826;28;20194;-73
2022/12/23 08:55:40;;;;;;;2.37;1.50;;;;;;;11.53;100.00;99576.38;5023676;28;20220;-73
2022/12/23 08:58:07;;;;;;;2.23;1.40;;;;;;;11.55;100.00;99576.31;5026006;28;20211;-74
2022/12/23 09:00:33;;;;;;;1.63;1.03;;;;;;;11.59;100.00;99586.56;5023229;28;20754;-73
2022/12/23 09:02:58;;;;;;;1.67;1.10;;;;;;;11.64;100.00;99585.59;5024700;28;20705;-74
2022/12/23 09:05:23;;;;;;;1.70;1.03;;;;;;;11.66;100.00;99582.06;5019184;28;20203;-72
2022/12/23 09:07:49;;;;;;;2.13;1.20;;;;;;;11.70;100.00;99572.50;5021338;28;20615;-73
2022/12/23 09:10:14;;;;;;;1.80;1.03;;;;;;;11.73;100.00;99562.91;5018234;28;20196;-74
2022/12/23 09:12:39;;;;;;;1.97;1.23;;;;;;;11.77;100.00;99558.50;5020548;28;20187;-73
2022/12/23 09:15:05;;;;;;;2.23;1.30;;;;;;;11.77;100.00;99550.72;5017412;28;20209;-73
2022/12/23 09:17:32;;;;;;;2.03;1.30;;;;;;;11.82;100.00;99550.59;5022850;28;20197;-74
2022/12/23 09:19:57;;;;;;;1.30;1.20;;;;;;;11.85;100.00;99540.13;5028266;28;20711;-74
2022/12/23 09:22:22;;;;;;;1.53;1.20;;;;;;;11.90;100.00;99538.28;5022748;28;20208;-74
2022/12/23 09:24:48;;;;;;;2.00;1.20;;;;;;;11.95;100.00;99533.81;5022586;28;20269;-73
2022/12/23 09:27:13;;;;;;;2.20;1.30;;;;;;;12.00;100.00;99523.38;5022650;28;20364;-73
2022/12/23 09:29:38;;;;;;;1.37;0.97;;;;;;;12.03;100.00;99510.28;5027479;28;20208;-72
2022/12/23 09:32:04;;;;;;;1.47;1.03;;;;;;;12.03;100.00;99505.97;5028622;28;20273;-74
2022/12/23 09:34:29;;;;;;;1.53;1.30;;;;;;;12.05;100.00;99508.50;5027656;28;20225;-74
2022/12/23 09:36:54;;;;;;;1.47;1.37;;;;;;;12.04;100.00;99506.81;5026073;28;20239;-73
2022/12/23 09:39:20;;;;;;;1.83;1.67;;;;;;;12.03;100.00;99515.47;5026019;28;20193;-74
2022/12/23 09:42:00;;;;;;;3.43;3.13;;;;;;;12.04;100.00;99527.56;5028236;28;20197;-75
2022/12/23 09:45:03;;;;;;;4.93;4.17;;;;;;;12.06;100.00;99520.59;5027571;28;20197;-74
2022/12/23 09:47:31;;;;;;;3.33;3.03;;;;;;;12.08;100.00;99516.22;5024539;28;20193;-73
2022/12/23 09:50:03;;;;;;;5.30;3.60;;;;;;;12.12;100.00;99512.66;5028218;28;20193;-73
2022/12/23 09:52:40;;;;;;;2.87;2.67;;;;;;;12.16;100.00;99506.50;5025820;28;20623;-73
2022/12/23 09:55:10;;;;;;;1.90;1.80;;;;;;;12.21;100.00;99519.34;5028192;28;20215;-74
2022/12/23 09:57:57;;;;;;;1.77;1.67;;;;;;;12.28;100.00;99518.25;5030950;28;20606;-74
2022/12/23 10:00:23;;;;;;;2.00;1.20;;;;;;;12.32;100.00;99514.69;5027483;28;20555;-73
2022/12/23 10:02:58;;;;;;;1.40;1.00;;;;;;;12.41;100.00;99512.69;5027317;28;20728;-73
2022/12/23 10:05:45;;;;;;;2.60;1.00;;;;;;;12.44;100.00;99512.63;5024999;28;20296;-73
2022/12/23 10:08:26;;;;;;;1.30;1.10;;;;;;;12.45;100.00;99504.81;5025904;28;20628;-73
2022/12/23 10:11:23;;;;;;;0.90;0.83;;;;;;;12.47;100.00;99507.34;5029478;28;20188;-73
2022/12/23 10:13:57;;;;;;;1.30;1.20;;;;;;;12.49;100.00;99510.75;5024175;28;20205;-74
2022/12/23 10:16:31;;;;;;;1.43;1.03;;;;;;;12.48;100.00;99507.28;5028776;28;20756;-74
2022/12/23 10:19:03;;;;;;;1.47;1.10;;;;;;;12.47;100.00;99497.84;5030115;28;20489;-73
2022/12/23 10:21:39;;;;;;;2.73;1.03;;;;;;;12.47;100.00;99489.19;5027069;28;20596;-74
2022/12/23 10:24:13;;;;;;;0.83;0.80;;;;;;;12.42;100.00;99489.31;5025784;28;20198;-73
2022/12/23 10:26:55;;;;;;;1.40;0.93;;;;;;;12.40;100.00;99485.09;5026504;28;20201;-73
2022/12/23 10:29:23;;;;;;;1.77;1.30;;;;;;;12.38;100.00;99489.47;5026409;28;20606;-74
2022/12/23 10:31:57;;;;;;;1.70;1.53;;;;;;;12.40;100.00;99490.28;5028092;28;20198;-73
2022/12/23 10:34:28;;;;;;;2.67;2.10;;;;;;;12.43;100.00;99475.44;5031951;28;20883;-74
2022/12/23 10:37:15;;;;;;;2.53;2.33;;;;;;;12.48;100.00;99476.16;5042920;28;20357;-73
2022/12/23 10:39:46;;;;;;;3.10;1.97;;;;;;;12.54;100.00;99469.94;5028368;28;20268;-73
2022/12/23 10:42:20;;;;;;;2.87;2.00;;;;;;;12.59;100.00;99470.63;5025049;28;20241;-73
2022/12/23 10:45:13;;;;;;;3.43;2.10;;;;;;;12.64;100.00;99467.91;5009838;28;20182;-74
2022/12/23 10:47:54;;;;;;;2.90;2.50;;;;;;;12.69;100.00;99460.00;5026764;28;20735;-73
2022/12/23 10:50:25;;;;;;;3.33;1.80;;;;;;;12.73;100.00;99467.63;5026793;28;20186;-73
2022/12/23 10:52:51;;;;;;;2.00;1.80;;;;;;;12.75;100.00;99458.06;5030202;28;20184;-74
2022/12/23 10:55:28;;;;;;;2.57;1.90;;;;;;;12.77;100.00;99461.47;5029634;28;20221;-72
2022/12/23 10:57:59;;;;;;;2.70;2.03;;;;;;;12.79;100.00;99458.78;5029391;28;20190;-74
2022/12/23 11:00:25;;;;;;;1.90;1.70;;;;;;;12.82;100.00;99456.09;5029255;28;20321;-73
2022/12/23 11:03:29;;;;;;;2.30;1.40;;;;;;;12.88;100.00;99448.09;5031338;28;20978;-73
2022/12/23 11:05:56;;;;;;;1.73;1.10;;;;;;;12.88;100.00;99444.69;5026284;28;20614;-72
2022/12/23 11:08:24;;;;;;;1.83;1.30;;;;;;;12.90;100.00;99435.94;5025689;28;20190;-74
2022/12/23 11:10:49;;;;;;;1.53;1.00;;;;;;;12.93;100.00;99432.41;5024136;28;20191;-73
2022/12/23 11:13:24;;;;;;;1.60;0.90;;;;;;;12.87;100.00;99428.22;5020387;28;20187;-74
2022/12/23 11:15:51;;;;;;;1.50;1.00;;;;;;;12.83;100.00;99420.59;5025578;28;20234;-73
2022/12/23 11:18:19;;;;;;;1.30;0.90;;;;;;;12.84;100.00;99419.69;5023423;28;20212;-72
2022/12/23 11:21:01;;;;;;;1.63;0.80;;;;;;;12.81;100.00;99413.69;5019514;28;20195;-72
2022/12/23 11:23:34;;;;;;;0.63;0.60;;;;;;;12.82;100.00;99404.19;5026143;28;20732;-73
2022/12/23 11:26:07;;;;;;;1.57;0.80;;;;;;;12.81;100.00;99398.13;5046407;28;20213;-76
2022/12/23 11:28:35;;;;;;;1.67;0.60;;;;;;;12.79;100.00;99389.53;5025868;28;20238;-73
2022/12/23 11:31:10;;;;;;;1.77;0.73;;;;;;;12.83;100.00;99392.03;5030522;28;20200;-74
2022/12/23 11:33:45;;;;;;;1.03;0.50;;;;;;;12.85;100.00;99379.84;5026761;28;20317;-73
2022/12/23 11:36:26;;;;;;;1.13;0.60;;;;;;;12.84;100.00;99367.75;5025200;28;20206;-73
2022/12/23 11:39:02;;;;;;;1.00;0.60;;;;;;;12.82;100.00;99367.84;5022942;28;20274;-72
2022/12/23 11:41:33;;;;;;;0.70;0.70;;;;;;;12.81;100.00;99358.34;5028754;28;20189;-72
2022/12/23 11:44:14;;;;;;;0.60;0.53;;;;;;;12.81;100.00;99353.16;5034548;28;20210;-73
2022/12/23 11:46:39;;;;;;;0.87;0.60;;;;;;;12.81;100.00;99347.97;5028789;28;20207;-73
2022/12/23 11:49:21;;;;;;;0.90;0.63;;;;;;;12.81;100.00;99343.59;5032677;28;20187;-73
2022/12/23 11:52:00;;;;;;;1.27;0.60;;;;;;;12.85;100.00;99335.72;5031188;28;20210;-74
2022/12/23 11:54:26;;;;;;;1.20;0.80;;;;;;;12.90;100.00;99336.41;5023327;28;20314;-72
2022/12/23 11:56:53;;;;;;;0.83;0.80;;;;;;;12.92;100.00;99327.66;5026599;28;20297;-72
2022/12/23 11:59:37;;;;;;;1.20;0.80;;;;;;;12.94;100.00;99327.59;5025312;28;20218;-73
2022/12/23 12:02:12;;;;;;;1.70;0.90;;;;;;;12.94;100.00;99317.22;5014566;28;20222;-73
2022/12/23 12:04:39;;;;;;;0.97;0.70;;;;;;;12.93;100.00;99316.38;5020480;28;20213;-73
2022/12/23 12:07:10;;;;;;;0.87;0.80;;;;;;;12.95;100.00;99317.19;5019752;28;20188;-72